sensor_id;sensor_type;location;lat;lon;timestamp;pressure;altitude;pressure_sealevel;temperature;humidity
74218;BME280;62579;47.288;18.646;2023-02-18T00:00:25;100222.78;;;13.02;65.19
74218;BME280;62579;47.288;18.646;2023-02-18T00:02:51;100216.81;;;13.04;65.15
74218;BME280;62579;47.288;18.646;2023-02-18T00:05:16;100234.97;;;13.07;65.26
74218;BME280;62579;47.288;18.646;2023-02-18T00:07:42;100231.47;;;13.06;64.95
74218;BME280;62579;47.288;18.646;2023-02-18T00:10:11;100215.38;;;12.92;65.21
74218;BME280;62579;47.288;18.646;2023-02-18T00:12:37;100218.59;;;12.96;64.92
74218;BME280;62579;47.288;18.646;2023-02-18T00:15:03;100228.28;;;12.91;65.04
74218;BME280;62579;47.288;18.646;2023-02-18T00:17:28;100226.06;;;12.90;64.57
74218;BME280;62579;47.288;18.646;2023-02-18T00:32:07;100217.69;;;12.77;63.88
74218;BME280;62579;47.288;18.646;2023-02-18T00:34:33;100228.88;;;12.62;64.21
74218;BME280;62579;47.288;18.646;2023-02-18T00:36:58;100209.75;;;12.62;64.12
74218;BME280;62579;47.288;18.646;2023-02-18T00:39:23;100212.72;;;12.64;64.21
74218;BME280;62579;47.288;18.646;2023-02-18T00:41:49;100205.31;;;12.53;63.96
74218;BME280;62579;47.288;18.646;2023-02-18T00:44:14;100209.78;;;12.56;63.52
74218;BME280;62579;47.288;18.646;2023-02-18T00:46:40;100201.59;;;12.51;63.35
74218;BME280;62579;47.288;18.646;2023-02-18T00:49:05;100200.38;;;12.52;63.27
74218;BME280;62579;47.288;18.646;2023-02-18T00:51:32;100196.41;;;12.47;63.28
74218;BME280;62579;47.288;18.646;2023-02-18T00:53:57;100208.31;;;12.50;63.17
74218;BME280;62579;47.288;18.646;2023-02-18T00:56:23;100209.09;;;12.34;63.22
74218;BME280;62579;47.288;18.646;2023-02-18T00:58:49;100208.88;;;12.26;63.61
74218;BME280;62579;47.288;18.646;2023-02-18T01:01:14;100195.97;;;12.21;64.30
74218;BME280;62579;47.288;18.646;2023-02-18T01:03:41;100202.41;;;12.24;63.95
74218;BME280;62579;47.288;18.646;2023-02-18T01:06:08;100192.22;;;12.30;64.18
74218;BME280;62579;47.288;18.646;2023-02-18T01:08:34;100193.22;;;12.27;64.25
74218;BME280;62579;47.288;18.646;2023-02-18T01:11:00;100181.81;;;12.34;64.26
74218;BME280;62579;47.288;18.646;2023-02-18T01:13:26;100192.72;;;12.34;65.66
74218;BME280;62579;47.288;18.646;2023-02-18T01:15:52;100184.00;;;12.41;65.46
74218;BME280;62579;47.288;18.646;2023-02-18T01:18:17;100182.03;;;12.47;65.77
74218;BME280;62579;47.288;18.646;2023-02-18T01:20:43;100175.78;;;12.57;65.74
74218;BME280;62579;47.288;18.646;2023-02-18T01:23:10;100174.81;;;12.55;66.36
74218;BME280;62579;47.288;18.646;2023-02-18T01:25:36;100177.75;;;12.62;66.48
74218;BME280;62579;47.288;18.646;2023-02-18T01:28:02;100156.63;;;12.69;66.66
74218;BME280;62579;47.288;18.646;2023-02-18T01:30:28;100170.75;;;12.73;66.45
74218;BME280;62579;47.288;18.646;2023-02-18T01:32:55;100168.78;;;12.73;66.49
74218;BME280;62579;47.288;18.646;2023-02-18T01:35:21;100172.00;;;12.77;66.30
74218;BME280;62579;47.288;18.646;2023-02-18T01:37:47;100177.47;;;12.72;66.56
74218;BME280;62579;47.288;18.646;2023-02-18T01:40:14;100188.88;;;12.70;66.64
74218;BME280;62579;47.288;18.646;2023-02-18T01:42:40;100168.81;;;12.62;66.69
74218;BME280;62579;47.288;18.646;2023-02-18T01:48:14;100168.34;;;12.52;66.84
74218;BME280;62579;47.288;18.646;2023-02-18T01:50:44;100170.84;;;12.50;66.78
74218;BME280;62579;47.288;18.646;2023-02-18T01:53:14;100178.78;;;12.43;66.91
74218;BME280;62579;47.288;18.646;2023-02-18T01:55:41;100171.12;;;12.36;67.22
74218;BME280;62579;47.288;18.646;2023-02-18T01:58:07;100182.56;;;12.34;67.41
74218;BME280;62579;47.288;18.646;2023-02-18T02:00:32;100176.13;;;12.21;67.89
74218;BME280;62579;47.288;18.646;2023-02-18T02:02:58;100162.72;;;12.28;67.95
74218;BME280;62579;47.288;18.646;2023-02-18T02:05:23;100165.72;;;12.14;68.68
74218;BME280;62579;47.288;18.646;2023-02-18T02:07:51;100157.50;;;12.25;68.35
74218;BME280;62579;47.288;18.646;2023-02-18T02:10:18;100150.81;;;12.31;68.34
74218;BME280;62579;47.288;18.646;2023-02-18T02:13:13;100148.31;;;12.33;68.46
74218;BME280;62579;47.288;18.646;2023-02-18T02:16:07;100147.31;;;12.42;68.46
74218;BME280;62579;47.288;18.646;2023-02-18T02:24:06;100130.22;;;12.30;68.87
74218;BME280;62579;47.288;18.646;2023-02-18T02:29:33;100130.22;;;12.30;69.19
74218;BME280;62579;47.288;18.646;2023-02-18T02:38:01;100127.69;;;12.38;69.27
74218;BME280;62579;47.288;18.646;2023-02-18T02:40:41;100124.44;;;12.50;69.19
74218;BME280;62579;47.288;18.646;2023-02-18T02:45:54;100120.72;;;12.48;69.06
74218;BME280;62579;47.288;18.646;2023-02-18T02:51:10;100117.53;;;12.38;69.03
74218;BME280;62579;47.288;18.646;2023-02-18T02:53:39;100125.94;;;12.46;68.72
74218;BME280;62579;47.288;18.646;2023-02-18T02:56:05;100134.66;;;12.33;68.83
74218;BME280;62579;47.288;18.646;2023-02-18T02:58:31;100126.72;;;12.30;68.70
74218;BME280;62579;47.288;18.646;2023-02-18T03:04:01;100111.87;;;12.20;69.34
74218;BME280;62579;47.288;18.646;2023-02-18T03:11:58;100107.03;;;12.53;68.35
74218;BME280;62579;47.288;18.646;2023-02-18T03:14:30;100112.03;;;12.49;68.52
74218;BME280;62579;47.288;18.646;2023-02-18T03:17:02;100117.25;;;12.53;68.12
74218;BME280;62579;47.288;18.646;2023-02-18T03:19:34;100112.25;;;12.51;68.60
74218;BME280;62579;47.288;18.646;2023-02-18T03:22:22;100126.13;;;12.59;68.30
74218;BME280;62579;47.288;18.646;2023-02-18T03:24:51;100145.41;;;12.78;68.12
74218;BME280;62579;47.288;18.646;2023-02-18T03:27:32;100143.41;;;12.78;67.87
74218;BME280;62579;47.288;18.646;2023-02-18T03:30:08;100140.97;;;12.75;67.77
74218;BME280;62579;47.288;18.646;2023-02-18T03:32:35;100128.09;;;12.64;68.17
74218;BME280;62579;47.288;18.646;2023-02-18T03:35:08;100138.78;;;12.62;68.33
74218;BME280;62579;47.288;18.646;2023-02-18T03:37:39;100135.87;;;12.43;69.05
74218;BME280;62579;47.288;18.646;2023-02-18T03:40:08;100130.59;;;12.62;68.82
74218;BME280;62579;47.288;18.646;2023-02-18T03:42:34;100135.84;;;12.54;69.08
74218;BME280;62579;47.288;18.646;2023-02-18T03:44:59;100145.25;;;12.53;69.25
74218;BME280;62579;47.288;18.646;2023-02-18T03:47:25;100131.47;;;12.87;68.14
74218;BME280;62579;47.288;18.646;2023-02-18T03:49:51;100150.34;;;12.90;68.07
74218;BME280;62579;47.288;18.646;2023-02-18T03:52:16;100146.06;;;12.95;68.02
74218;BME280;62579;47.288;18.646;2023-02-18T03:54:42;100151.34;;;12.82;68.60
74218;BME280;62579;47.288;18.646;2023-02-18T03:57:07;100157.12;;;12.67;68.97
74218;BME280;62579;47.288;18.646;2023-02-18T03:59:33;100144.00;;;12.60;68.70
74218;BME280;62579;47.288;18.646;2023-02-18T04:01:58;100157.66;;;12.54;69.05
74218;BME280;62579;47.288;18.646;2023-02-18T04:04:25;100152.63;;;12.75;68.51
74218;BME280;62579;47.288;18.646;2023-02-18T04:06:50;100170.47;;;12.82;68.45
74218;BME280;62579;47.288;18.646;2023-02-18T04:09:15;100163.69;;;12.99;68.17
74218;BME280;62579;47.288;18.646;2023-02-18T04:11:41;100159.19;;;13.07;67.74
74218;BME280;62579;47.288;18.646;2023-02-18T04:14:07;100152.69;;;13.16;67.47
74218;BME280;62579;47.288;18.646;2023-02-18T04:16:32;100164.31;;;13.28;67.02
74218;BME280;62579;47.288;18.646;2023-02-18T04:18:57;100156.84;;;13.28;67.25
74218;BME280;62579;47.288;18.646;2023-02-18T04:21:23;100165.00;;;13.34;67.26
74218;BME280;62579;47.288;18.646;2023-02-18T04:23:48;100156.47;;;13.43;66.64
74218;BME280;62579;47.288;18.646;2023-02-18T04:26:14;100152.00;;;13.45;66.73
74218;BME280;62579;47.288;18.646;2023-02-18T04:28:39;100158.72;;;13.44;66.81
74218;BME280;62579;47.288;18.646;2023-02-18T04:31:04;100148.94;;;13.54;66.33
74218;BME280;62579;47.288;18.646;2023-02-18T04:33:30;100155.44;;;13.51;66.45
74218;BME280;62579;47.288;18.646;2023-02-18T04:35:55;100144.72;;;13.53;66.24
74218;BME280;62579;47.288;18.646;2023-02-18T04:38:21;100146.19;;;13.60;65.96
74218;BME280;62579;47.288;18.646;2023-02-18T04:40:46;100160.91;;;13.51;66.53
74218;BME280;62579;47.288;18.646;2023-02-18T04:43:11;100151.25;;;13.45;66.74
74218;BME280;62579;47.288;18.646;2023-02-18T04:45:37;100150.28;;;13.42;66.74
74218;BME280;62579;47.288;18.646;2023-02-18T04:48:02;100181.84;;;13.43;66.58
74218;BME280;62579;47.288;18.646;2023-02-18T04:50:28;100158.69;;;13.50;66.53
74218;BME280;62579;47.288;18.646;2023-02-18T04:52:53;100156.03;;;13.39;67.21
74218;BME280;62579;47.288;18.646;2023-02-18T04:55:19;100165.44;;;13.43;66.83
74218;BME280;62579;47.288;18.646;2023-02-18T04:57:44;100161.50;;;13.39;67.01
74218;BME280;62579;47.288;18.646;2023-02-18T05:00:16;100156.78;;;13.39;67.13
74218;BME280;62579;47.288;18.646;2023-02-18T05:02:43;100159.03;;;13.35;67.24
74218;BME280;62579;47.288;18.646;2023-02-18T05:05:09;100163.25;;;13.36;67.12
74218;BME280;62579;47.288;18.646;2023-02-18T05:07:34;100167.13;;;13.52;66.61
74218;BME280;62579;47.288;18.646;2023-02-18T05:10:00;100181.06;;;13.48;66.80
74218;BME280;62579;47.288;18.646;2023-02-18T05:12:25;100174.06;;;13.53;66.59
74218;BME280;62579;47.288;18.646;2023-02-18T05:14:50;100151.50;;;13.47;66.89
74218;BME280;62579;47.288;18.646;2023-02-18T05:17:16;100178.06;;;13.52;66.58
74218;BME280;62579;47.288;18.646;2023-02-18T05:19:41;100203.91;;;13.51;66.78
74218;BME280;62579;47.288;18.646;2023-02-18T05:22:07;100183.75;;;13.54;66.62
74218;BME280;62579;47.288;18.646;2023-02-18T05:24:32;100191.25;;;13.48;66.99
74218;BME280;62579;47.288;18.646;2023-02-18T05:26:58;100200.56;;;13.34;67.62
74218;BME280;62579;47.288;18.646;2023-02-18T05:29:23;100202.75;;;13.35;67.53
74218;BME280;62579;47.288;18.646;2023-02-18T05:31:48;100198.03;;;13.36;67.28
74218;BME280;62579;47.288;18.646;2023-02-18T05:34:14;100201.03;;;13.32;67.52
74218;BME280;62579;47.288;18.646;2023-02-18T05:36:39;100200.03;;;13.35;67.36
74218;BME280;62579;47.288;18.646;2023-02-18T05:39:05;100204.59;;;13.21;67.78
74218;BME280;62579;47.288;18.646;2023-02-18T05:41:30;100197.38;;;13.18;67.99
74218;BME280;62579;47.288;18.646;2023-02-18T05:43:55;100202.09;;;13.18;67.81
74218;BME280;62579;47.288;18.646;2023-02-18T05:46:39;100208.31;;;13.18;67.83
74218;BME280;62579;47.288;18.646;2023-02-18T05:49:05;100212.31;;;13.17;67.89
74218;BME280;62579;47.288;18.646;2023-02-18T05:51:30;100208.88;;;13.11;68.01
74218;BME280;62579;47.288;18.646;2023-02-18T05:53:55;100204.38;;;13.14;68.15
74218;BME280;62579;47.288;18.646;2023-02-18T05:56:21;100216.31;;;13.05;68.14
74218;BME280;62579;47.288;18.646;2023-02-18T05:58:47;100220.53;;;13.06;68.31
74218;BME280;62579;47.288;18.646;2023-02-18T06:01:12;100225.28;;;13.00;68.48
74218;BME280;62579;47.288;18.646;2023-02-18T06:03:37;100236.19;;;13.06;68.20
74218;BME280;62579;47.288;18.646;2023-02-18T06:06:03;100233.94;;;13.04;68.29
74218;BME280;62579;47.288;18.646;2023-02-18T06:08:29;100237.22;;;12.97;68.53
74218;BME280;62579;47.288;18.646;2023-02-18T06:10:54;100249.38;;;12.96;68.25
74218;BME280;62579;47.288;18.646;2023-02-18T06:13:19;100263.81;;;12.86;68.51
74218;BME280;62579;47.288;18.646;2023-02-18T06:15:45;100269.56;;;12.82;68.81
74218;BME280;62579;47.288;18.646;2023-02-18T06:18:10;100285.94;;;12.82;69.08
74218;BME280;62579;47.288;18.646;2023-02-18T06:20:38;100299.34;;;12.80;69.23
74218;BME280;62579;47.288;18.646;2023-02-18T06:23:03;100309.78;;;12.82;69.35
74218;BME280;62579;47.288;18.646;2023-02-18T06:25:28;100312.53;;;12.71;69.93
74218;BME280;62579;47.288;18.646;2023-02-18T06:27:54;100311.03;;;12.70;70.21
74218;BME280;62579;47.288;18.646;2023-02-18T06:30:19;100319.75;;;12.57;70.69
74218;BME280;62579;47.288;18.646;2023-02-18T06:32:45;100318.25;;;12.56;70.97
74218;BME280;62579;47.288;18.646;2023-02-18T06:35:10;100309.56;;;12.52;71.23
74218;BME280;62579;47.288;18.646;2023-02-18T06:37:35;100318.00;;;12.48;71.90
74218;BME280;62579;47.288;18.646;2023-02-18T06:40:01;100322.22;;;12.44;71.87
74218;BME280;62579;47.288;18.646;2023-02-18T06:42:26;100326.19;;;12.48;72.21
74218;BME280;62579;47.288;18.646;2023-02-18T06:44:52;100329.44;;;12.41;72.97
74218;BME280;62579;47.288;18.646;2023-02-18T06:47:17;100334.88;;;12.36;74.06
74218;BME280;62579;47.288;18.646;2023-02-18T06:49:42;100327.69;;;12.27;74.85
74218;BME280;62579;47.288;18.646;2023-02-18T06:52:08;100333.38;;;12.24;75.28
74218;BME280;62579;47.288;18.646;2023-02-18T06:54:33;100345.78;;;12.14;76.18
74218;BME280;62579;47.288;18.646;2023-02-18T06:56:58;100348.03;;;12.21;76.73
74218;BME280;62579;47.288;18.646;2023-02-18T06:59:24;100345.03;;;12.02;77.89
74218;BME280;62579;47.288;18.646;2023-02-18T07:01:50;100345.28;;;11.98;78.46
74218;BME280;62579;47.288;18.646;2023-02-18T07:04:15;100343.56;;;12.07;78.58
74218;BME280;62579;47.288;18.646;2023-02-18T07:06:40;100340.06;;;12.06;79.21
74218;BME280;62579;47.288;18.646;2023-02-18T07:09:06;100334.88;;;12.14;79.12
74218;BME280;62579;47.288;18.646;2023-02-18T07:11:31;100346.78;;;12.16;79.22
74218;BME280;62579;47.288;18.646;2023-02-18T07:13:57;100336.38;;;12.15;79.21
74218;BME280;62579;47.288;18.646;2023-02-18T07:16:22;100332.16;;;12.19;78.90
74218;BME280;62579;47.288;18.646;2023-02-18T07:18:48;100336.59;;;12.17;79.11
74218;BME280;62579;47.288;18.646;2023-02-18T07:21:13;100330.16;;;12.14;79.40
74218;BME280;62579;47.288;18.646;2023-02-18T07:23:38;100338.34;;;12.14;79.25
74218;BME280;62579;47.288;18.646;2023-02-18T07:26:12;100324.69;;;12.14;79.65
74218;BME280;62579;47.288;18.646;2023-02-18T07:28:38;100330.41;;;12.11;79.95
74218;BME280;62579;47.288;18.646;2023-02-18T07:31:04;100323.22;;;12.24;79.53
74218;BME280;62579;47.288;18.646;2023-02-18T07:33:30;100331.66;;;12.10;80.35
74218;BME280;62579;47.288;18.646;2023-02-18T07:35:57;100327.19;;;12.18;80.06
74218;BME280;62579;47.288;18.646;2023-02-18T07:38:24;100326.44;;;12.23;80.03
74218;BME280;62579;47.288;18.646;2023-02-18T07:40:50;100324.47;;;12.18;80.20
74218;BME280;62579;47.288;18.646;2023-02-18T07:43:16;100325.47;;;12.20;80.27
74218;BME280;62579;47.288;18.646;2023-02-18T07:45:42;100324.47;;;12.23;80.20
74218;BME280;62579;47.288;18.646;2023-02-18T07:48:08;100325.22;;;12.18;80.57
74218;BME280;62579;47.288;18.646;2023-02-18T07:50:33;100330.16;;;12.20;80.68
74218;BME280;62579;47.288;18.646;2023-02-18T07:53:02;100322.00;;;12.25;80.55
74218;BME280;62579;47.288;18.646;2023-02-18T07:55:28;100315.28;;;12.15;80.91
74218;BME280;62579;47.288;18.646;2023-02-18T07:58:12;100316.53;;;12.20;80.81
74218;BME280;62579;47.288;18.646;2023-02-18T08:00:37;100315.00;;;12.07;81.23
74218;BME280;62579;47.288;18.646;2023-02-18T08:03:03;100308.56;;;12.11;80.98
74218;BME280;62579;47.288;18.646;2023-02-18T08:05:28;100304.09;;;12.19;80.46
74218;BME280;62579;47.288;18.646;2023-02-18T08:07:54;100309.84;;;12.15;80.57
74218;BME280;62579;47.288;18.646;2023-02-18T08:10:19;100310.56;;;12.16;80.32
74218;BME280;62579;47.288;18.646;2023-02-18T08:12:44;100314.31;;;12.13;80.22
74218;BME280;62579;47.288;18.646;2023-02-18T08:15:13;100314.53;;;12.03;80.41
74218;BME280;62579;47.288;18.646;2023-02-18T08:17:38;100320.47;;;12.13;79.72
74218;BME280;62579;47.288;18.646;2023-02-18T08:20:04;100316.75;;;12.16;79.53
74218;BME280;62579;47.288;18.646;2023-02-18T08:22:30;100312.78;;;12.06;79.99
74218;BME280;62579;47.288;18.646;2023-02-18T08:24:56;100322.22;;;12.22;79.27
74218;BME280;62579;47.288;18.646;2023-02-18T08:27:21;100328.94;;;12.15;79.55
74218;BME280;62579;47.288;18.646;2023-02-18T08:29:47;100322.97;;;12.22;79.28
74218;BME280;62579;47.288;18.646;2023-02-18T08:32:12;100325.69;;;12.05;79.75
74218;BME280;62579;47.288;18.646;2023-02-18T08:34:38;100331.91;;;12.12;79.64
74218;BME280;62579;47.288;18.646;2023-02-18T08:37:04;100339.09;;;12.20;79.23
74218;BME280;62579;47.288;18.646;2023-02-18T08:39:36;100330.66;;;12.07;79.69
74218;BME280;62579;47.288;18.646;2023-02-18T08:42:03;100323.97;;;12.25;79.00
74218;BME280;62579;47.288;18.646;2023-02-18T08:44:28;100323.47;;;12.21;79.15
74218;BME280;62579;47.288;18.646;2023-02-18T08:46:54;100317.53;;;12.28;78.63
74218;BME280;62579;47.288;18.646;2023-02-18T08:49:19;100321.00;;;12.23;78.91
74218;BME280;62579;47.288;18.646;2023-02-18T08:51:46;100316.53;;;12.31;78.56
74218;BME280;62579;47.288;18.646;2023-02-18T08:54:11;100309.09;;;12.31;78.66
74218;BME280;62579;47.288;18.646;2023-02-18T08:56:37;100310.56;;;12.38;78.60
74218;BME280;62579;47.288;18.646;2023-02-18T08:59:04;100314.78;;;12.44;78.70
74218;BME280;62579;47.288;18.646;2023-02-18T09:01:29;100315.28;;;12.48;79.16
74218;BME280;62579;47.288;18.646;2023-02-18T09:03:54;100313.53;;;12.56;78.66
74218;BME280;62579;47.288;18.646;2023-02-18T09:06:20;100317.25;;;12.64;78.60
74218;BME280;62579;47.288;18.646;2023-02-18T09:08:45;100312.75;;;12.73;78.13
74218;BME280;62579;47.288;18.646;2023-02-18T09:11:11;100309.53;;;12.74;77.75
74218;BME280;62579;47.288;18.646;2023-02-18T09:13:36;100311.22;;;12.88;76.68
74218;BME280;62579;47.288;18.646;2023-02-18T09:16:07;100312.19;;;13.02;75.70
74218;BME280;62579;47.288;18.646;2023-02-18T09:18:33;100310.72;;;13.06;75.16
74218;BME280;62579;47.288;18.646;2023-02-18T09:21:04;100308.47;;;13.16;74.32
74218;BME280;62579;47.288;18.646;2023-02-18T09:23:31;100308.19;;;13.25;74.46
74218;BME280;62579;47.288;18.646;2023-02-18T09:25:57;100299.97;;;13.31;73.07
74218;BME280;62579;47.288;18.646;2023-02-18T09:28:23;100296.44;;;13.41;72.35
74218;BME280;62579;47.288;18.646;2023-02-18T09:30:49;100289.97;;;13.39;72.09
74218;BME280;62579;47.288;18.646;2023-02-18T09:33:15;100300.59;;;13.53;72.12
74218;BME280;62579;47.288;18.646;2023-02-18T09:35:43;100295.81;;;13.65;71.31
74218;BME280;62579;47.288;18.646;2023-02-18T09:38:10;100295.25;;;13.72;70.96
74218;BME280;62579;47.288;18.646;2023-02-18T09:40:41;100297.69;;;13.81;70.33
74218;BME280;62579;47.288;18.646;2023-02-18T09:43:33;100295.34;;;13.96;69.41
74218;BME280;62579;47.288;18.646;2023-02-18T09:45:58;100290.78;;;14.10;69.59
74218;BME280;62579;47.288;18.646;2023-02-18T09:48:30;100278.63;;;14.05;70.31
74218;BME280;62579;47.288;18.646;2023-02-18T09:50:57;100287.00;;;14.13;70.03
74218;BME280;62579;47.288;18.646;2023-02-18T09:53:23;100284.41;;;14.26;69.50
74218;BME280;62579;47.288;18.646;2023-02-18T09:55:51;100283.19;;;14.27;69.34
74218;BME280;62579;47.288;18.646;2023-02-18T09:58:20;100270.38;;;14.40;69.30
74218;BME280;62579;47.288;18.646;2023-02-18T10:00:50;100281.78;;;14.44;68.19
74218;BME280;62579;47.288;18.646;2023-02-18T10:03:19;100285.00;;;14.49;67.91
74218;BME280;62579;47.288;18.646;2023-02-18T10:05:57;100285.19;;;14.56;67.46
74218;BME280;62579;47.288;18.646;2023-02-18T10:11:00;100270.69;;;14.61;66.76
74218;BME280;62579;47.288;18.646;2023-02-18T10:13:32;100279.16;;;14.58;67.46
74218;BME280;62579;47.288;18.646;2023-02-18T10:15:58;100283.53;;;14.72;66.47
74218;BME280;62579;47.288;18.646;2023-02-18T10:18:32;100269.06;;;14.71;67.26
74218;BME280;62579;47.288;18.646;2023-02-18T10:21:24;100260.09;;;14.76;66.28
74218;BME280;62579;47.288;18.646;2023-02-18T10:26:30;100254.91;;;14.91;64.61
74218;BME280;62579;47.288;18.646;2023-02-18T10:28:58;100247.59;;;14.99;65.36
74218;BME280;62579;47.288;18.646;2023-02-18T10:31:34;100227.81;;;15.07;64.41
74218;BME280;62579;47.288;18.646;2023-02-18T10:34:23;100227.97;;;15.14;64.02
74218;BME280;62579;47.288;18.646;2023-02-18T10:36:56;100237.19;;;15.17;64.27
74218;BME280;62579;47.288;18.646;2023-02-18T10:40:02;100247.31;;;15.22;63.63
74218;BME280;62579;47.288;18.646;2023-02-18T10:48:07;100230.81;;;15.27;64.09
74218;BME280;62579;47.288;18.646;2023-02-18T10:50:38;100228.13;;;15.22;63.77
74218;BME280;62579;47.288;18.646;2023-02-18T10:55:40;100229.47;;;15.15;63.92
74218;BME280;62579;47.288;18.646;2023-02-18T10:58:36;100228.22;;;15.16;64.78
74218;BME280;62579;47.288;18.646;2023-02-18T11:01:13;100220.94;;;15.19;64.42
74218;BME280;62579;47.288;18.646;2023-02-18T11:03:46;100220.47;;;15.15;64.58
74218;BME280;62579;47.288;18.646;2023-02-18T11:06:20;100206.91;;;15.22;62.99
74218;BME280;62579;47.288;18.646;2023-02-18T11:08:46;100208.78;;;15.14;64.06
74218;BME280;62579;47.288;18.646;2023-02-18T11:11:37;100192.56;;;15.16;64.09
74218;BME280;62579;47.288;18.646;2023-02-18T11:14:05;100200.47;;;15.20;63.63
74218;BME280;62579;47.288;18.646;2023-02-18T11:19:03;100174.75;;;15.41;62.47
74218;BME280;62579;47.288;18.646;2023-02-18T11:21:37;100166.37;;;15.52;62.81
74218;BME280;62579;47.288;18.646;2023-02-18T11:24:15;100175.97;;;15.46;61.86
74218;BME280;62579;47.288;18.646;2023-02-18T11:26:41;100166.03;;;15.75;62.25
74218;BME280;62579;47.288;18.646;2023-02-18T11:29:23;100168.22;;;16.08;61.69
74218;BME280;62579;47.288;18.646;2023-02-18T11:31:52;100160.19;;;16.10;61.12
74218;BME280;62579;47.288;18.646;2023-02-18T11:34:21;100166.84;;;16.28;59.30
74218;BME280;62579;47.288;18.646;2023-02-18T11:36:48;100152.59;;;16.42;59.43
74218;BME280;62579;47.288;18.646;2023-02-18T11:39:23;100148.91;;;16.27;59.16
74218;BME280;62579;47.288;18.646;2023-02-18T11:41:57;100159.44;;;16.36;60.07
74218;BME280;62579;47.288;18.646;2023-02-18T11:44:30;100139.16;;;16.26;59.38
74218;BME280;62579;47.288;18.646;2023-02-18T11:46:59;100145.72;;;16.36;59.30
74218;BME280;62579;47.288;18.646;2023-02-18T11:49:25;100130.50;;;16.48;59.84
74218;BME280;62579;47.288;18.646;2023-02-18T11:51:51;100134.84;;;16.30;59.65
74218;BME280;62579;47.288;18.646;2023-02-18T11:54:28;100134.00;;;16.22;60.21
74218;BME280;62579;47.288;18.646;2023-02-18T11:56:59;100130.94;;;16.26;60.43
74218;BME280;62579;47.288;18.646;2023-02-18T11:59:26;100134.63;;;16.28;60.68
74218;BME280;62579;47.288;18.646;2023-02-18T12:02:02;100129.78;;;16.34;60.13
74218;BME280;62579;47.288;18.646;2023-02-18T12:04:39;100130.72;;;16.37;60.19
74218;BME280;62579;47.288;18.646;2023-02-18T12:07:29;100113.59;;;16.31;61.10
74218;BME280;62579;47.288;18.646;2023-02-18T12:10:00;100108.22;;;16.38;60.21
74218;BME280;62579;47.288;18.646;2023-02-18T12:12:35;100116.44;;;16.38;60.27
74218;BME280;62579;47.288;18.646;2023-02-18T12:15:07;100110.34;;;16.45;59.96
74218;BME280;62579;47.288;18.646;2023-02-18T12:22:58;100110.75;;;16.36;59.88
74218;BME280;62579;47.288;18.646;2023-02-18T12:59:09;100059.75;;;17.08;56.88
74218;BME280;62579;47.288;18.646;2023-02-18T13:12:23;100057.06;;;17.36;55.95
74218;BME280;62579;47.288;18.646;2023-02-18T13:17:38;100044.19;;;17.11;55.37
74218;BME280;62579;47.288;18.646;2023-02-18T13:22:51;100053.31;;;17.06;55.20
74218;BME280;62579;47.288;18.646;2023-02-18T13:25:18;100051.97;;;16.99;55.37
74218;BME280;62579;47.288;18.646;2023-02-18T13:28:00;100041.84;;;16.94;55.68
74218;BME280;62579;47.288;18.646;2023-02-18T13:30:46;100048.97;;;16.76;55.60
74218;BME280;62579;47.288;18.646;2023-02-18T13:33:23;100043.34;;;16.61;55.73
74218;BME280;62579;47.288;18.646;2023-02-18T13:36:02;100040.47;;;16.41;56.18
74218;BME280;62579;47.288;18.646;2023-02-18T13:38:50;100043.00;;;16.52;55.69
74218;BME280;62579;47.288;18.646;2023-02-18T13:41:18;100038.31;;;16.26;55.69
74218;BME280;62579;47.288;18.646;2023-02-18T13:43:43;100040.19;;;16.31;56.04
74218;BME280;62579;47.288;18.646;2023-02-18T13:46:14;100031.84;;;16.37;55.86
74218;BME280;62579;47.288;18.646;2023-02-18T13:49:04;100028.06;;;16.27;55.53
74218;BME280;62579;47.288;18.646;2023-02-18T13:51:44;100018.03;;;16.16;55.30
74218;BME280;62579;47.288;18.646;2023-02-18T13:56:43;100006.63;;;16.12;54.80
74218;BME280;62579;47.288;18.646;2023-02-18T13:59:19;100000.63;;;16.13;54.95
74218;BME280;62579;47.288;18.646;2023-02-18T14:01:48;99995.75;;;16.06;55.12
74218;BME280;62579;47.288;18.646;2023-02-18T14:23:11;99986.63;;;15.20;56.33
74218;BME280;62579;47.288;18.646;2023-02-18T14:25:40;99972.00;;;14.85;57.15
74218;BME280;62579;47.288;18.646;2023-02-18T14:42:56;99950.69;;;14.47;58.06
74218;BME280;62579;47.288;18.646;2023-02-18T14:45:43;99937.44;;;14.32;58.93
74218;BME280;62579;47.288;18.646;2023-02-18T14:50:47;99938.75;;;14.25;58.67
74218;BME280;62579;47.288;18.646;2023-02-18T14:53:16;99935.59;;;14.03;59.29
74218;BME280;62579;47.288;18.646;2023-02-18T14:55:52;99933.00;;;13.92;59.71
74218;BME280;62579;47.288;18.646;2023-02-18T14:58:38;99933.25;;;13.69;60.19
74218;BME280;62579;47.288;18.646;2023-02-18T15:03:40;99922.59;;;13.47;60.52
74218;BME280;62579;47.288;18.646;2023-02-18T15:08:52;99908.28;;;13.36;60.97
74218;BME280;62579;47.288;18.646;2023-02-18T15:11:19;99922.81;;;13.25;61.04
74218;BME280;62579;47.288;18.646;2023-02-18T15:13:47;99915.63;;;13.22;61.15
74218;BME280;62579;47.288;18.646;2023-02-18T15:16:25;99908.56;;;13.08;61.26
74218;BME280;62579;47.288;18.646;2023-02-18T15:19:00;99911.28;;;12.78;62.17
74218;BME280;62579;47.288;18.646;2023-02-18T15:21:30;99908.03;;;12.85;61.82
74218;BME280;62579;47.288;18.646;2023-02-18T15:24:20;99904.91;;;12.70;62.24
74218;BME280;62579;47.288;18.646;2023-02-18T15:26:48;99902.41;;;12.72;62.25